Time;durP1;ratioP1;P1;durP2;ratioP2;P2;SDS_P1;SDS_P2;PMS_P1;PMS_P2;Temp;Humidity;BMP_temperature;BMP_pressure;BME280_temperature;BME280_humidity;BME280_pressure;Samples;Min_cycle;Max_cycle;Signal;HPM_P1;HPM_P2
2022/11/11 00:00:04;;;;;;;16.13;6.82;;;;;;;;;;5036445;28;20041;-84
2022/11/11 00:02:30;;;;;;;18.35;6.85;;;;;;;;;;5035843;28;20076;-85
2022/11/11 00:04:56;;;;;;;16.80;6.85;;;;;;;;;;5033000;28;20076;-85
2022/11/11 00:07:22;;;;;;;14.88;6.93;;;;;;;;;;5034144;28;20454;-85
2022/11/11 00:09:48;;;;;;;18.52;7.03;;;;;;;;;;5035283;28;20041;-85
2022/11/11 00:12:14;;;;;;;19.40;7.88;;;;;;;;;;5035029;28;20041;-85
2022/11/11 00:14:40;;;;;;;14.63;7.47;;;;;;;;;;5033181;28;20106;-84
2022/11/11 00:25:30;;;;;;;14.43;7.53;;;;;;;;;;5018496;28;20124;-83
2022/11/11 00:27:56;;;;;;;13.25;7.32;;;;;;;;;;5032128;28;20128;-83
2022/11/11 00:30:22;;;;;;;15.57;8.15;;;;;;;;;;5032544;28;20045;-83
2022/11/11 00:32:48;;;;;;;15.30;7.90;;;;;;;;;;5034464;28;20107;-85
2022/11/11 00:38:06;;;;;;;15.32;7.82;;;;;;;;;;5032253;28;20053;-85
2022/11/11 00:40:32;;;;;;;19.52;8.27;;;;;;;;;;5032640;28;20515;-84
2022/11/11 00:42:58;;;;;;;16.33;8.82;;;;;;;;;;5033559;28;20069;-85
2022/11/11 00:45:24;;;;;;;16.27;8.73;;;;;;;;;;5032257;28;20128;-85
2022/11/11 00:53:21;;;;;;;18.10;9.18;;;;;;;;;;5044648;28;20049;-84
2022/11/11 00:55:47;;;;;;;16.92;8.65;;;;;;;;;;5044094;28;20096;-84
2022/11/11 00:58:15;;;;;;;15.25;8.48;;;;;;;;;;5045305;28;20480;-85
2022/11/11 01:00:41;;;;;;;19.45;9.30;;;;;;;;;;5033424;28;20121;-84
2022/11/11 01:03:07;;;;;;;16.08;8.95;;;;;;;;;;5033959;28;20037;-85
2022/11/11 01:05:34;;;;;;;14.23;8.38;;;;;;;;;;5034202;28;20095;-84
2022/11/11 01:08:00;;;;;;;17.83;8.73;;;;;;;;;;5032452;28;20041;-85
2022/11/11 01:10:38;;;;;;;17.90;9.25;;;;;;;;;;5033729;28;20055;-84
2022/11/11 01:13:12;;;;;;;19.75;9.70;;;;;;;;;;5033316;28;20047;-84
2022/11/11 01:15:41;;;;;;;19.30;9.88;;;;;;;;;;5031499;28;20500;-84
2022/11/11 01:18:08;;;;;;;24.00;10.30;;;;;;;;;;5038941;28;20053;-84
2022/11/11 01:20:36;;;;;;;16.70;9.35;;;;;;;;;;5033958;28;20080;-84
2022/11/11 01:23:02;;;;;;;19.83;10.00;;;;;;;;;;5032014;28;20046;-84
2022/11/11 01:25:28;;;;;;;17.13;9.60;;;;;;;;;;5031271;28;20044;-84
2022/11/11 01:27:54;;;;;;;17.60;9.50;;;;;;;;;;5031025;28;20398;-84
2022/11/11 01:30:20;;;;;;;20.17;10.43;;;;;;;;;;5033265;28;20128;-84
2022/11/11 01:32:46;;;;;;;18.55;10.73;;;;;;;;;;5032908;28;20092;-85
2022/11/11 01:35:12;;;;;;;20.55;10.30;;;;;;;;;;5014280;28;20053;-84
2022/11/11 01:37:38;;;;;;;23.35;10.18;;;;;;;;;;5033350;28;20124;-84
2022/11/11 01:40:04;;;;;;;20.00;10.70;;;;;;;;;;5032832;28;20119;-84
2022/11/11 01:42:30;;;;;;;22.05;11.82;;;;;;;;;;5032294;28;20072;-85
2022/11/11 01:44:56;;;;;;;18.33;11.70;;;;;;;;;;5033348;28;20034;-85
2022/11/11 01:49:17;;;;;;;20.35;11.18;;;;;;;;;;5031075;28;20396;-84
2022/11/11 01:50:09;;;;;;;22.35;11.98;;;;;;;;;;5025642;28;20045;-84
2022/11/11 01:52:36;;;;;;;18.95;11.32;;;;;;;;;;5030988;28;20405;-84
2022/11/11 01:55:07;;;;;;;19.08;11.88;;;;;;;;;;5031278;28;20051;-85
2022/11/11 01:57:36;;;;;;;19.47;12.60;;;;;;;;;;5028986;28;20049;-84
2022/11/11 02:00:12;;;;;;;21.65;13.15;;;;;;;;;;5031219;28;20288;-84
2022/11/11 02:02:46;;;;;;;22.10;12.70;;;;;;;;;;5031557;28;20385;-85
2022/11/11 02:08:02;;;;;;;20.98;12.15;;;;;;;;;;5032720;28;20124;-85
2022/11/11 02:10:29;;;;;;;24.42;14.05;;;;;;;;;;5032501;28;20055;-85
2022/11/11 02:15:40;;;;;;;20.63;13.35;;;;;;;;;;5026490;28;20049;-84
2022/11/11 02:18:06;;;;;;;23.17;14.05;;;;;;;;;;5031490;28;20500;-84
2022/11/11 02:20:35;;;;;;;22.75;13.45;;;;;;;;;;5031875;28;20459;-85
2022/11/11 02:23:04;;;;;;;25.05;13.80;;;;;;;;;;5031881;28;20033;-85
2022/11/11 02:25:32;;;;;;;21.33;13.45;;;;;;;;;;5030245;28;20092;-84
2022/11/11 02:28:00;;;;;;;23.88;14.57;;;;;;;;;;5032719;28;20559;-84
2022/11/11 02:30:27;;;;;;;20.42;14.38;;;;;;;;;;5032619;28;20128;-84
2022/11/11 02:32:53;;;;;;;21.92;14.90;;;;;;;;;;5031062;28;20041;-84
2022/11/11 02:35:30;;;;;;;23.65;14.90;;;;;;;;;;5011989;28;20046;-84
2022/11/11 02:37:56;;;;;;;21.85;15.27;;;;;;;;;;5028883;28;20041;-84
2022/11/11 02:40:31;;;;;;;21.42;14.27;;;;;;;;;;5031979;28;20054;-84
2022/11/11 02:42:57;;;;;;;22.60;15.18;;;;;;;;;;5031123;28;20385;-84
2022/11/11 02:45:23;;;;;;;22.35;15.52;;;;;;;;;;5015065;28;20068;-84
2022/11/11 02:47:49;;;;;;;27.15;16.65;;;;;;;;;;5014046;28;20045;-84
2022/11/11 02:50:15;;;;;;;24.88;16.13;;;;;;;;;;5030301;28;20034;-84
2022/11/11 02:52:41;;;;;;;22.55;17.10;;;;;;;;;;5033228;28;20134;-84
2022/11/11 02:55:07;;;;;;;22.30;16.67;;;;;;;;;;5036352;28;20050;-85
2022/11/11 02:57:34;;;;;;;25.33;17.60;;;;;;;;;;5036039;28;20064;-85
2022/11/11 03:00:01;;;;;;;28.65;17.38;;;;;;;;;;5036817;28;20486;-84
2022/11/11 03:02:27;;;;;;;30.10;18.40;;;;;;;;;;5034214;28;20052;-84
2022/11/11 03:04:56;;;;;;;25.88;17.80;;;;;;;;;;5018769;28;20049;-85
2022/11/11 03:07:23;;;;;;;26.55;17.20;;;;;;;;;;5035653;28;20037;-84
2022/11/11 03:09:49;;;;;;;27.10;18.30;;;;;;;;;;5034841;28;20038;-85
2022/11/11 03:12:16;;;;;;;28.63;18.60;;;;;;;;;;5014278;28;20484;-84
2022/11/11 03:14:42;;;;;;;26.50;18.60;;;;;;;;;;5032516;28;20424;-84
2022/11/11 03:21:03;;;;;;;26.38;18.80;;;;;;;;;;5030744;28;20053;-84
2022/11/11 03:22:39;;;;;;;31.42;19.30;;;;;;;;;;5017830;28;20060;-85
2022/11/11 03:27:50;;;;;;;28.92;20.73;;;;;;;;;;5035048;28;20049;-85
2022/11/11 03:30:16;;;;;;;30.25;19.52;;;;;;;;;;5035234;28;20048;-84
2022/11/11 03:32:43;;;;;;;33.40;21.05;;;;;;;;;;5034244;28;20408;-85
2022/11/11 03:35:09;;;;;;;28.02;20.67;;;;;;;;;;5035528;28;20501;-85
2022/11/11 03:40:20;;;;;;;29.40;21.33;;;;;;;;;;5035527;28;20045;-85
2022/11/11 03:42:46;;;;;;;29.83;21.83;;;;;;;;;;5032401;28;20072;-85
2022/11/11 03:45:12;;;;;;;37.72;22.75;;;;;;;;;;5035195;28;20147;-85
2022/11/11 03:47:38;;;;;;;35.75;23.85;;;;;;;;;;5033918;28;20065;-85
2022/11/11 03:50:04;;;;;;;33.08;22.88;;;;;;;;;;5034217;28;20041;-84
2022/11/11 03:52:30;;;;;;;33.83;23.60;;;;;;;;;;5033383;28;20123;-85
2022/11/11 03:54:56;;;;;;;32.28;23.00;;;;;;;;;;5035280;28;20505;-84
2022/11/11 03:57:31;;;;;;;31.48;24.00;;;;;;;;;;5033433;28;20048;-85
2022/11/11 03:59:57;;;;;;;28.67;22.88;;;;;;;;;;5015015;28;20045;-84
2022/11/11 04:10:21;;;;;;;34.88;24.55;;;;;;;;;;5034913;28;20049;-85
2022/11/11 04:10:44;;;;;;;35.05;23.75;;;;;;;;;;5034502;28;20045;-85
2022/11/11 04:16:04;;;;;;;29.92;24.77;;;;;;;;;;5034765;28;20042;-85
2022/11/11 04:24:00;;;;;;;32.60;23.05;;;;;;;;;;5034818;28;20049;-84
2022/11/11 04:26:26;;;;;;;38.70;25.85;;;;;;;;;;5033018;28;20045;-85
2022/11/11 04:32:34;;;;;;;35.78;26.05;;;;;;;;;;5014148;28;20053;-85
2022/11/11 04:34:26;;;;;;;31.55;23.95;;;;;;;;;;5028631;28;20045;-86
2022/11/11 04:36:52;;;;;;;37.72;26.15;;;;;;;;;;5032432;28;20556;-85
2022/11/11 04:42:02;;;;;;;35.40;24.85;;;;;;;;;;5033719;28;20045;-86
2022/11/11 04:47:13;;;;;;;32.58;24.88;;;;;;;;;;5014967;28;20057;-85
2022/11/11 04:49:39;;;;;;;33.83;26.27;;;;;;;;;;5033355;28;20068;-85
2022/11/11 04:57:34;;;;;;;35.80;25.63;;;;;;;;;;5032667;28;20045;-85
2022/11/11 05:00:00;;;;;;;34.60;26.13;;;;;;;;;;5033197;28;20072;-85
2022/11/11 05:05:11;;;;;;;40.95;25.73;;;;;;;;;;5033459;28;20045;-84
2022/11/11 05:10:22;;;;;;;31.98;24.63;;;;;;;;;;5033670;28;20045;-85
2022/11/11 05:12:48;;;;;;;37.08;25.10;;;;;;;;;;4998225;28;20049;-85
2022/11/11 05:26:17;;;;;;;34.88;24.52;;;;;;;;;;5032585;28;20041;-85
2022/11/11 05:28:43;;;;;;;34.03;22.98;;;;;;;;;;5034641;28;20463;-86
2022/11/11 05:31:09;;;;;;;32.42;24.13;;;;;;;;;;5033321;28;20041;-86
2022/11/11 05:33:35;;;;;;;35.47;24.52;;;;;;;;;;5034484;28;20099;-85
2022/11/11 05:36:01;;;;;;;28.88;22.83;;;;;;;;;;5030950;28;20046;-85
2022/11/11 05:38:28;;;;;;;32.50;24.88;;;;;;;;;;5030971;28;20033;-85
2022/11/11 05:40:55;;;;;;;31.08;23.83;;;;;;;;;;5045169;28;20069;-85
2022/11/11 05:43:21;;;;;;;34.60;24.52;;;;;;;;;;5031759;28;20049;-84
2022/11/11 05:45:47;;;;;;;37.05;24.52;;;;;;;;;;5016728;28;20046;-86
2022/11/11 05:48:13;;;;;;;35.03;24.00;;;;;;;;;;5011991;28;20095;-85
2022/11/11 05:50:41;;;;;;;37.35;24.15;;;;;;;;;;5030647;28;20125;-85
2022/11/11 05:53:07;;;;;;;36.35;23.35;;;;;;;;;;5013539;28;20401;-85
2022/11/11 05:55:36;;;;;;;34.10;22.70;;;;;;;;;;5032053;28;20045;-85
2022/11/11 05:58:02;;;;;;;36.25;24.58;;;;;;;;;;5031790;28;20208;-85
2022/11/11 06:00:28;;;;;;;33.72;22.75;;;;;;;;;;5015261;28;20053;-85
2022/11/11 06:02:54;;;;;;;33.67;23.52;;;;;;;;;;5032882;28;20053;-85
2022/11/11 06:05:20;;;;;;;36.65;22.77;;;;;;;;;;5030007;28;20045;-85
2022/11/11 06:07:46;;;;;;;33.05;22.40;;;;;;;;;;5023380;28;20716;-84
2022/11/11 06:10:30;;;;;;;31.77;23.77;;;;;;;;;;5029748;28;20084;-84
2022/11/11 06:13:08;;;;;;;31.25;22.83;;;;;;;;;;5012975;28;20046;-84
2022/11/11 06:15:35;;;;;;;31.42;22.75;;;;;;;;;;5032759;28;20057;-84
2022/11/11 06:18:01;;;;;;;34.13;23.30;;;;;;;;;;5028677;28;20045;-83
2022/11/11 06:20:28;;;;;;;29.08;21.98;;;;;;;;;;5026982;28;20053;-85
2022/11/11 06:22:57;;;;;;;33.08;22.92;;;;;;;;;;5024722;28;20069;-84
2022/11/11 06:28:12;;;;;;;32.03;22.58;;;;;;;;;;5020180;28;20079;-85
2022/11/11 06:30:39;;;;;;;28.77;22.00;;;;;;;;;;5030204;28;20510;-85
2022/11/11 06:33:08;;;;;;;33.60;22.52;;;;;;;;;;5029571;28;20060;-85
2022/11/11 06:35:38;;;;;;;31.23;22.33;;;;;;;;;;5032173;28;20081;-85
2022/11/11 06:38:05;;;;;;;31.95;21.85;;;;;;;;;;5031233;28;20049;-85
2022/11/11 06:40:31;;;;;;;31.90;21.45;;;;;;;;;;5010816;28;20041;-85
2022/11/11 06:42:57;;;;;;;29.10;22.08;;;;;;;;;;5031262;28;20037;-84
2022/11/11 06:45:24;;;;;;;33.15;21.80;;;;;;;;;;5026836;28;20037;-84
2022/11/11 06:47:50;;;;;;;30.10;22.77;;;;;;;;;;5031499;28;20050;-84
2022/11/11 06:50:16;;;;;;;34.55;23.38;;;;;;;;;;5032402;28;20048;-84
2022/11/11 06:52:42;;;;;;;29.77;22.13;;;;;;;;;;5027574;28;20512;-84
2022/11/11 06:55:08;;;;;;;32.20;22.85;;;;;;;;;;5032913;28;20115;-85
2022/11/11 06:57:34;;;;;;;31.25;21.25;;;;;;;;;;5031930;28;20528;-85
2022/11/11 07:00:00;;;;;;;31.77;21.38;;;;;;;;;;5032408;28;20049;-86
2022/11/11 07:02:26;;;;;;;30.48;22.10;;;;;;;;;;5013853;28;20174;-85
2022/11/11 07:04:52;;;;;;;31.13;20.88;;;;;;;;;;5029591;28;20042;-85
2022/11/11 07:07:18;;;;;;;29.98;20.02;;;;;;;;;;5030673;28;20056;-85
2022/11/11 07:09:44;;;;;;;31.48;21.50;;;;;;;;;;5028504;28;20057;-85
2022/11/11 07:12:10;;;;;;;30.75;21.63;;;;;;;;;;5012016;28;20045;-86
2022/11/11 07:14:36;;;;;;;30.30;21.38;;;;;;;;;;5012540;28;20130;-86
2022/11/11 07:17:02;;;;;;;30.35;20.85;;;;;;;;;;5013040;28;20072;-85
2022/11/11 07:19:28;;;;;;;27.38;20.20;;;;;;;;;;5010991;28;20509;-84
2022/11/11 07:21:54;;;;;;;31.50;21.65;;;;;;;;;;5031163;28;20040;-84
2022/11/11 07:24:20;;;;;;;30.73;21.90;;;;;;;;;;5011510;28;20052;-85
2022/11/11 07:26:46;;;;;;;29.70;20.63;;;;;;;;;;5012648;28;20061;-85
2022/11/11 07:29:14;;;;;;;29.25;20.13;;;;;;;;;;5030935;28;20144;-84
2022/11/11 07:31:40;;;;;;;28.55;18.90;;;;;;;;;;5031526;28;20053;-84
2022/11/11 07:34:06;;;;;;;29.60;20.17;;;;;;;;;;5031972;28;20096;-85
2022/11/11 07:36:32;;;;;;;27.45;19.73;;;;;;;;;;5031310;28;20484;-85
2022/11/11 07:38:58;;;;;;;28.23;19.58;;;;;;;;;;5028948;28;20060;-85
2022/11/11 07:41:25;;;;;;;23.95;19.88;;;;;;;;;;5017498;28;20037;-85
2022/11/11 07:43:51;;;;;;;27.35;20.42;;;;;;;;;;5035360;28;20041;-84
2022/11/11 07:46:17;;;;;;;28.75;19.45;;;;;;;;;;5016967;28;20060;-85
2022/11/11 07:48:43;;;;;;;31.55;19.80;;;;;;;;;;5033399;28;20045;-85
2022/11/11 07:51:09;;;;;;;28.52;19.85;;;;;;;;;;5035235;28;20049;-85
2022/11/11 07:53:35;;;;;;;24.13;18.55;;;;;;;;;;5033936;28;20493;-84
2022/11/11 07:56:01;;;;;;;28.05;20.00;;;;;;;;;;5035025;28;20088;-84
2022/11/11 07:58:27;;;;;;;29.33;19.50;;;;;;;;;;5032456;28;20517;-84
2022/11/11 08:00:53;;;;;;;26.67;19.77;;;;;;;;;;5032400;28;20057;-85
2022/11/11 08:03:19;;;;;;;28.02;20.02;;;;;;;;;;5036958;28;20054;-84
2022/11/11 08:05:45;;;;;;;27.00;19.77;;;;;;;;;;5041083;28;20465;-85
2022/11/11 08:08:11;;;;;;;28.75;19.15;;;;;;;;;;5040782;28;20400;-84
2022/11/11 08:10:37;;;;;;;27.10;19.08;;;;;;;;;;5033173;28;20447;-85
2022/11/11 08:15:49;;;;;;;27.60;18.63;;;;;;;;;;5034058;28;20045;-84
2022/11/11 08:18:15;;;;;;;28.50;18.88;;;;;;;;;;5033840;28;20431;-84
2022/11/11 08:20:41;;;;;;;27.92;18.80;;;;;;;;;;5032654;28;20045;-84
2022/11/11 08:23:09;;;;;;;28.25;18.30;;;;;;;;;;5033065;28;20076;-85
2022/11/11 08:25:36;;;;;;;25.83;18.33;;;;;;;;;;4998844;28;20049;-84
2022/11/11 08:28:03;;;;;;;26.95;17.42;;;;;;;;;;5033976;28;20045;-84
2022/11/11 08:30:30;;;;;;;27.63;18.05;;;;;;;;;;5033392;28;20550;-84
2022/11/11 08:32:59;;;;;;;30.45;17.63;;;;;;;;;;5033578;28;20045;-84
2022/11/11 08:35:26;;;;;;;29.77;19.02;;;;;;;;;;5031145;28;20053;-84
2022/11/11 08:37:52;;;;;;;25.50;18.15;;;;;;;;;;5027569;28;20038;-85
2022/11/11 08:40:18;;;;;;;27.45;18.42;;;;;;;;;;5031132;28;20354;-85
2022/11/11 08:42:44;;;;;;;23.27;17.05;;;;;;;;;;5032027;28;20496;-85
2022/11/11 08:45:10;;;;;;;27.77;17.33;;;;;;;;;;5034805;28;20453;-84
2022/11/11 08:47:37;;;;;;;29.30;18.48;;;;;;;;;;5033766;28;20123;-85
2022/11/11 08:50:03;;;;;;;24.58;17.65;;;;;;;;;;5014181;28;20052;-84
2022/11/11 08:52:29;;;;;;;23.38;16.80;;;;;;;;;;5032186;28;20056;-85
2022/11/11 08:54:55;;;;;;;26.58;17.58;;;;;;;;;;5032299;28;20042;-85
2022/11/11 08:57:21;;;;;;;27.33;17.60;;;;;;;;;;4991971;28;20468;-84
2022/11/11 08:59:47;;;;;;;24.85;17.52;;;;;;;;;;5030314;28;20052;-84
2022/11/11 09:02:14;;;;;;;24.83;16.98;;;;;;;;;;5030128;28;20421;-84
2022/11/11 09:04:40;;;;;;;23.73;17.42;;;;;;;;;;5029149;28;20053;-84
2022/11/11 09:07:07;;;;;;;23.30;16.45;;;;;;;;;;5032678;28;20497;-84
2022/11/11 09:09:34;;;;;;;24.67;16.50;;;;;;;;;;5010485;28;20947;-85
2022/11/11 09:12:00;;;;;;;23.23;16.35;;;;;;;;;;5029124;28;20049;-84
2022/11/11 09:14:26;;;;;;;24.13;16.65;;;;;;;;;;5012834;28;20045;-84
2022/11/11 09:16:52;;;;;;;23.10;16.40;;;;;;;;;;5015775;28;20496;-85
2022/11/11 09:19:18;;;;;;;24.85;16.90;;;;;;;;;;5014488;28;20057;-84
2022/11/11 09:21:44;;;;;;;23.35;15.90;;;;;;;;;;5015520;28;20056;-85
2022/11/11 09:24:10;;;;;;;23.08;17.02;;;;;;;;;;5014448;28;20053;-85
2022/11/11 09:26:36;;;;;;;24.25;16.52;;;;;;;;;;5012634;28;20128;-85
2022/11/11 09:29:02;;;;;;;25.00;16.40;;;;;;;;;;5032128;28;20176;-85
2022/11/11 09:31:28;;;;;;;21.38;16.35;;;;;;;;;;5007050;28;20046;-85
2022/11/11 09:33:54;;;;;;;20.15;15.13;;;;;;;;;;5028884;28;20385;-85
2022/11/11 09:36:20;;;;;;;22.77;15.73;;;;;;;;;;5032849;28;20136;-85
2022/11/11 09:38:46;;;;;;;23.20;14.75;;;;;;;;;;5033342;28;20041;-85
2022/11/11 09:41:20;;;;;;;24.23;15.57;;;;;;;;;;5031875;28;20076;-85
2022/11/11 09:43:51;;;;;;;26.30;15.88;;;;;;;;;;5032725;28;20041;-85
2022/11/11 09:46:36;;;;;;;24.52;16.85;;;;;;;;;;5031161;28;20143;-85
2022/11/11 09:49:02;;;;;;;22.88;16.85;;;;;;;;;;5032033;28;20056;-85
2022/11/11 09:51:30;;;;;;;23.45;16.08;;;;;;;;;;5032566;28;20046;-85
2022/11/11 09:53:59;;;;;;;21.23;16.02;;;;;;;;;;5033235;28;20049;-84
2022/11/11 09:56:27;;;;;;;24.08;16.10;;;;;;;;;;5031836;28;20043;-85
2022/11/11 09:58:59;;;;;;;23.67;17.17;;;;;;;;;;5006474;28;20034;-85
2022/11/11 10:01:27;;;;;;;24.23;16.92;;;;;;;;;;5031177;28;20443;-84
2022/11/11 10:03:59;;;;;;;25.27;18.05;;;;;;;;;;5029973;28;20041;-85
2022/11/11 10:06:30;;;;;;;23.52;17.13;;;;;;;;;;5004565;28;20573;-84
2022/11/11 10:09:01;;;;;;;24.35;18.58;;;;;;;;;;5027562;28;20501;-83
2022/11/11 10:11:30;;;;;;;23.90;18.70;;;;;;;;;;5031074;28;20045;-83
2022/11/11 10:13:56;;;;;;;26.45;18.35;;;;;;;;;;5030721;28;20056;-83
2022/11/11 10:16:33;;;;;;;24.23;18.67;;;;;;;;;;5028512;28;20053;-82
2022/11/11 10:18:59;;;;;;;28.80;19.75;;;;;;;;;;5031907;28;20049;-83
2022/11/11 10:21:36;;;;;;;24.52;18.33;;;;;;;;;;5027299;28;20052;-84
2022/11/11 10:24:05;;;;;;;26.65;18.75;;;;;;;;;;5028530;28;20084;-83
2022/11/11 10:26:39;;;;;;;23.88;18.42;;;;;;;;;;5031264;28;20042;-83
2022/11/11 10:29:10;;;;;;;25.23;18.05;;;;;;;;;;5028087;28;20065;-83
2022/11/11 10:31:36;;;;;;;26.83;18.88;;;;;;;;;;5022211;28;20041;-84
2022/11/11 10:34:04;;;;;;;27.10;19.25;;;;;;;;;;5015451;28;20049;-83
2022/11/11 10:36:31;;;;;;;26.67;19.45;;;;;;;;;;5014051;28;20133;-84
2022/11/11 10:39:01;;;;;;;25.25;19.30;;;;;;;;;;5030067;28;20041;-84
2022/11/11 10:41:45;;;;;;;29.47;19.70;;;;;;;;;;5027622;28;20056;-84
2022/11/11 10:44:25;;;;;;;22.70;19.25;;;;;;;;;;5031855;28;20045;-83
2022/11/11 10:47:02;;;;;;;24.02;17.80;;;;;;;;;;5013027;28;20444;-84
2022/11/11 10:49:31;;;;;;;22.17;17.27;;;;;;;;;;5032114;28;20141;-83
2022/11/11 10:52:00;;;;;;;23.65;17.15;;;;;;;;;;5013918;28;20046;-84
2022/11/11 10:54:30;;;;;;;23.30;18.17;;;;;;;;;;5030497;28;20037;-84
2022/11/11 10:57:01;;;;;;;22.60;17.48;;;;;;;;;;5025172;28;20050;-84
2022/11/11 10:59:27;;;;;;;26.92;18.98;;;;;;;;;;5029769;28;20103;-84
2022/11/11 11:01:59;;;;;;;22.00;17.20;;;;;;;;;;5010721;28;20053;-83
2022/11/11 11:04:25;;;;;;;21.25;17.75;;;;;;;;;;5013349;28;20500;-83
2022/11/11 11:06:52;;;;;;;23.73;17.33;;;;;;;;;;5030327;28;20037;-83
2022/11/11 11:09:24;;;;;;;21.08;16.98;;;;;;;;;;5027342;28;20043;-83
2022/11/11 11:11:55;;;;;;;21.95;17.20;;;;;;;;;;5012050;28;20120;-84
2022/11/11 11:14:39;;;;;;;20.35;16.40;;;;;;;;;;5003972;28;20072;-83
2022/11/11 11:17:08;;;;;;;23.92;16.33;;;;;;;;;;5017830;28;20053;-84
2022/11/11 11:19:34;;;;;;;21.52;17.27;;;;;;;;;;5032548;28;20455;-83
2022/11/11 11:22:01;;;;;;;21.50;16.92;;;;;;;;;;5008368;28;20050;-83
2022/11/11 11:24:28;;;;;;;21.50;16.80;;;;;;;;;;5027773;28;20053;-83
2022/11/11 11:26:55;;;;;;;18.88;16.27;;;;;;;;;;5033999;28;20033;-83
2022/11/11 11:29:35;;;;;;;21.33;15.75;;;;;;;;;;4989323;28;20053;-84
2022/11/11 11:32:15;;;;;;;20.00;16.13;;;;;;;;;;5033800;28;20530;-84
2022/11/11 11:34:47;;;;;;;19.48;15.48;;;;;;;;;;5016397;28;20128;-84
2022/11/11 11:37:14;;;;;;;17.67;14.93;;;;;;;;;;5015995;28;20412;-83
2022/11/11 11:39:40;;;;;;;16.33;14.20;;;;;;;;;;5017394;28;20049;-84
2022/11/11 11:42:06;;;;;;;18.00;14.98;;;;;;;;;;5032758;28;20048;-84
2022/11/11 11:44:33;;;;;;;23.02;17.52;;;;;;;;;;5014907;28;20526;-83
2022/11/11 11:47:24;;;;;;;18.48;15.07;;;;;;;;;;5035059;28;20056;-83
2022/11/11 11:50:02;;;;;;;18.80;14.27;;;;;;;;;;5033690;28;20111;-84
2022/11/11 11:52:47;;;;;;;19.70;14.73;;;;;;;;;;5033306;28;20046;-84
2022/11/11 11:55:22;;;;;;;18.42;14.68;;;;;;;;;;5033912;28;20434;-84
2022/11/11 11:57:56;;;;;;;16.63;13.93;;;;;;;;;;5034601;28;20038;-83
2022/11/11 12:00:27;;;;;;;16.55;13.57;;;;;;;;;;5031476;28;20067;-83
2022/11/11 12:03:06;;;;;;;18.67;13.77;;;;;;;;;;4992910;28;20390;-83
2022/11/11 12:05:48;;;;;;;15.98;12.80;;;;;;;;;;5032585;28;20053;-83
2022/11/11 12:08:23;;;;;;;16.33;13.50;;;;;;;;;;5031694;28;20052;-83
2022/11/11 12:10:53;;;;;;;16.77;13.55;;;;;;;;;;5032160;28;20489;-83
2022/11/11 12:13:28;;;;;;;17.20;13.10;;;;;;;;;;5033155;28;20041;-83
2022/11/11 12:15:57;;;;;;;15.73;12.70;;;;;;;;;;5030909;28;20489;-83
2022/11/11 12:18:35;;;;;;;18.20;13.23;;;;;;;;;;4993982;28;20053;-83
2022/11/11 12:21:05;;;;;;;15.93;13.05;;;;;;;;;;5031960;28;20038;-83
2022/11/11 12:23:42;;;;;;;14.57;12.05;;;;;;;;;;5032585;28;20037;-84
2022/11/11 12:26:13;;;;;;;15.45;12.73;;;;;;;;;;5028720;28;20128;-83
2022/11/11 12:28:48;;;;;;;14.90;12.73;;;;;;;;;;5032766;28;20037;-83
2022/11/11 12:31:14;;;;;;;17.92;13.57;;;;;;;;;;5032171;28;20045;-84
2022/11/11 12:33:41;;;;;;;16.00;12.43;;;;;;;;;;5031935;28;20053;-83
2022/11/11 12:36:07;;;;;;;14.70;12.15;;;;;;;;;;5031186;28;20045;-83
2022/11/11 12:38:36;;;;;;;16.13;12.98;;;;;;;;;;5028293;28;20124;-83
2022/11/11 12:41:21;;;;;;;17.67;12.95;;;;;;;;;;5032563;28;20073;-84
2022/11/11 12:43:52;;;;;;;17.85;12.48;;;;;;;;;;5029344;28;20033;-83
2022/11/11 12:46:18;;;;;;;;;;;;;;;;;;5032103;28;20083;-83
2022/11/11 12:48:56;;;;;;;17.13;12.50;;;;;;;;;;4993670;28;19921;-84
2022/11/11 12:51:25;;;;;;;14.98;11.75;;;;;;;;;;5006512;28;20076;-83
2022/11/11 12:54:01;;;;;;;15.55;12.40;;;;;;;;;;5034091;28;20050;-83
2022/11/11 12:56:39;;;;;;;16.45;11.75;;;;;;;;;;5009779;28;20405;-84
2022/11/11 12:59:21;;;;;;;14.77;12.07;;;;;;;;;;5008493;28;20060;-85
2022/11/11 13:01:56;;;;;;;14.15;12.65;;;;;;;;;;5025477;28;20033;-85
2022/11/11 13:04:22;;;;;;;14.35;12.82;;;;;;;;;;5030965;28;20037;-84
2022/11/11 13:07:11;;;;;;;15.90;12.85;;;;;;;;;;5013935;28;20041;-84
2022/11/11 13:09:37;;;;;;;17.38;13.57;;;;;;;;;;5031374;28;20046;-85
2022/11/11 13:12:06;;;;;;;16.02;12.80;;;;;;;;;;5033451;28;20080;-84
2022/11/11 13:14:35;;;;;;;15.98;13.00;;;;;;;;;;5015671;28;20124;-84
2022/11/11 13:17:01;;;;;;;15.80;12.55;;;;;;;;;;5031340;28;20059;-85
2022/11/11 13:19:40;;;;;;;17.02;12.43;;;;;;;;;;5027047;28;20460;-84
2022/11/11 13:22:17;;;;;;;15.75;12.70;;;;;;;;;;5033278;28;20116;-84
2022/11/11 13:24:44;;;;;;;17.10;12.05;;;;;;;;;;5029923;28;20496;-84
2022/11/11 13:27:23;;;;;;;15.90;11.75;;;;;;;;;;5032299;28;20163;-84
2022/11/11 13:29:57;;;;;;;13.45;11.38;;;;;;;;;;5031583;28;20346;-83
2022/11/11 13:32:31;;;;;;;13.57;10.68;;;;;;;;;;4999466;28;20069;-84
2022/11/11 13:34:57;;;;;;;14.85;11.13;;;;;;;;;;5030366;28;20060;-85
2022/11/11 13:37:28;;;;;;;14.48;10.70;;;;;;;;;;5024417;28;20038;-85
2022/11/11 13:39:58;;;;;;;14.98;11.32;;;;;;;;;;5028347;28;20099;-85
2022/11/11 13:42:26;;;;;;;17.02;10.68;;;;;;;;;;5023045;28;20052;-84
2022/11/11 13:44:53;;;;;;;15.48;11.05;;;;;;;;;;5024920;28;20055;-84
2022/11/11 13:47:22;;;;;;;14.27;11.88;;;;;;;;;;5030534;28;20041;-84
2022/11/11 13:49:56;;;;;;;17.02;10.93;;;;;;;;;;5031802;28;20057;-85
2022/11/11 13:52:48;;;;;;;12.60;10.35;;;;;;;;;;5032827;28;20077;-84
2022/11/11 13:55:28;;;;;;;16.67;10.85;;;;;;;;;;5009432;28;20119;-84
2022/11/11 13:57:54;;;;;;;16.30;11.00;;;;;;;;;;5031990;28;20084;-84
2022/11/11 14:00:20;;;;;;;14.98;11.18;;;;;;;;;;5027396;28;20578;-84
2022/11/11 14:02:46;;;;;;;14.07;11.07;;;;;;;;;;4987467;28;20057;-85
2022/11/11 14:05:12;;;;;;;16.77;12.65;;;;;;;;;;5025161;28;20034;-84
2022/11/11 14:07:47;;;;;;;14.38;10.48;;;;;;;;;;5030338;28;20045;-84
2022/11/11 14:10:16;;;;;;;15.65;10.80;;;;;;;;;;5029150;28;20132;-84
2022/11/11 14:12:42;;;;;;;16.95;11.35;;;;;;;;;;5032092;28;20038;-84
2022/11/11 14:15:27;;;;;;;12.38;9.85;;;;;;;;;;5012415;28;20444;-84
2022/11/11 14:17:53;;;;;;;13.23;9.75;;;;;;;;;;5004004;28;20524;-83
2022/11/11 14:20:38;;;;;;;19.10;11.02;;;;;;;;;;5005827;28;20053;-84
2022/11/11 14:23:22;;;;;;;16.30;11.25;;;;;;;;;;5007390;28;20057;-84
2022/11/11 14:26:09;;;;;;;16.13;10.07;;;;;;;;;;5011474;28;20045;-84
2022/11/11 14:28:48;;;;;;;16.70;10.85;;;;;;;;;;5008805;28;20519;-84
2022/11/11 14:31:17;;;;;;;15.00;10.05;;;;;;;;;;5028063;28;20041;-84
2022/11/11 14:33:55;;;;;;;15.80;10.63;;;;;;;;;;5012320;28;20041;-84
2022/11/11 14:36:28;;;;;;;16.33;10.23;;;;;;;;;;5009473;28;20045;-82
2022/11/11 14:38:54;;;;;;;14.35;9.55;;;;;;;;;;5031025;28;20049;-83
2022/11/11 14:41:39;;;;;;;15.63;10.95;;;;;;;;;;5041253;28;20388;-84
2022/11/11 14:44:23;;;;;;;14.43;9.88;;;;;;;;;;5029371;28;20052;-84
2022/11/11 14:47:04;;;;;;;18.25;10.07;;;;;;;;;;5018763;28;20120;-83
2022/11/11 14:49:52;;;;;;;13.95;10.27;;;;;;;;;;5035477;28;20072;-83
2022/11/11 14:52:17;;;;;;;15.32;9.90;;;;;;;;;;5035555;28;20124;-83
2022/11/11 14:54:51;;;;;;;13.98;9.35;;;;;;;;;;5017462;28;20092;-83
2022/11/11 14:57:22;;;;;;;14.82;9.90;;;;;;;;;;5034873;28;20045;-83
2022/11/11 14:59:48;;;;;;;;;;;;;;;;;;5035134;28;20056;-83
2022/11/11 15:02:21;;;;;;;13.15;10.10;;;;;;;;;;5036707;28;19925;-83
2022/11/11 15:04:47;;;;;;;14.05;9.82;;;;;;;;;;5036898;28;20102;-83
2022/11/11 15:07:40;;;;;;;16.65;10.35;;;;;;;;;;5001448;28;20137;-82
2022/11/11 15:10:16;;;;;;;15.40;10.48;;;;;;;;;;5033886;28;20060;-82
2022/11/11 15:12:42;;;;;;;16.88;10.73;;;;;;;;;;5034077;28;20040;-83
2022/11/11 15:15:15;;;;;;;16.13;10.45;;;;;;;;;;5018879;28;20033;-83
2022/11/11 15:17:53;;;;;;;15.20;9.75;;;;;;;;;;5048697;28;20053;-82
2022/11/11 15:20:22;;;;;;;17.25;10.18;;;;;;;;;;5051781;28;20548;-83
2022/11/11 15:22:48;;;;;;;16.05;10.48;;;;;;;;;;5035407;28;20046;-83
2022/11/11 15:25:21;;;;;;;16.35;11.05;;;;;;;;;;5027570;28;20125;-84
2022/11/11 15:27:51;;;;;;;14.93;10.65;;;;;;;;;;5038111;28;20038;-83
2022/11/11 15:30:18;;;;;;;22.17;14.23;;;;;;;;;;5039079;28;20045;-84
2022/11/11 15:33:08;;;;;;;20.50;15.38;;;;;;;;;;5040913;28;20052;-84
2022/11/11 15:35:34;;;;;;;17.80;12.00;;;;;;;;;;4919044;29;20060;-84
2022/11/11 15:38:01;;;;;;;17.92;10.75;;;;;;;;;;4918728;29;20536;-84
2022/11/11 15:40:31;;;;;;;16.58;11.00;;;;;;;;;;4935788;29;20079;-84
2022/11/11 15:42:58;;;;;;;18.30;11.23;;;;;;;;;;4935691;29;20618;-84
2022/11/11 15:45:26;;;;;;;17.33;11.45;;;;;;;;;;4934456;29;20126;-85
2022/11/11 15:47:53;;;;;;;19.88;10.73;;;;;;;;;;4920482;29;20055;-84
2022/11/11 15:50:35;;;;;;;16.48;11.50;;;;;;;;;;4935966;29;20052;-84